LFBULFBL

Guest
Details From LFBU - Angouleme Brie Champniers
To LFBL - Limoges Bellegarde
Flight Number -
Tags decoded
Created
Modified
Stats Distance 41 nm / 76 km
Max Altitude 0 ft / 0 m
Waypoints 2
Social Downloads 0
Likes 0
Share VATSIM

Download

Looking for another format? Having issues loading an existing format? Contact us
Advertisement - Login to hide

Notes

Requested: LFBU LFBL

Route

LFBU LFBL

ID Type Via Altitude Latitude Longitude Leg Dist Tot Dist Heading (true) Name
O LFBU APT - 0 ft / 0 m 45.72951˚ 0.21867˚ - 0 nm - Angouleme Brie Champniers
O LFBL APT - 0 ft / 0 m 45.86190˚ 1.18137˚ 41 nm 41 nm 78° / 79° Limoges Bellegarde

Altitude Profile

Advertisement - Login to hide

LFBU

Details ICAO LFBU (ANG)
Name Angouleme Brie Champniers
Region France
Timezone Europe/Paris (UTC+2.0)
Stats Elevation 436 ft / 133 m (AMSL)
Location 45.729515° 0.218672°
Runways 1
Magnetic Variation 0.209° E

METAR

LFBU 260600Z AUTO 15009KT 9999 FEW043 SCT049 BKN060 17/11 Q1013 BECMG SCT070TCU

Decode

TAF

TAF LFBU 260500Z 2606/2706 14005KT CAVOK PROB30 TEMPO 2606/2608 5000 BR BECMG 2606/2608 SCT070TCU TEMPO 2614/2624 -SHRA FEW060CB BKN070TCU PROB40 TEMPO 2613/2616 VRB15G25KT 3000 TSRA BKN040CB PROB30 TEMPO 2613/2616 1200 TSRAGR BKN003 OVC040CB

Decode

Departure Runways

ID Width Length Bearing (true) Bearing (mag) Surface Threshold Offset Overrun Length
10 148 ft / 45 m 5,923 ft / 1,805 m 96.94° 96.73° Asphalt 0 ft / 0 m 1,805 ft / 550 m
28 148 ft / 45 m 5,923 ft / 1,805 m 276.96° 276.75° Asphalt 0 ft / 0 m 1,375 ft / 419 m

LFBL

Details ICAO LFBL (LIG)
Name Limoges Bellegarde
Region France
Timezone Europe/Paris (UTC+2.0)
Stats Elevation 1,300 ft / 396 m (AMSL)
Location 45.861896° 1.181368°
Runways 1
Magnetic Variation 0.479° E

METAR

LFBL 260600Z AUTO 13005KT CAVOK 16/09 Q1014 NOSIG

Decode

TAF

TAF LFBL 260500Z 2606/2706 11004KT CAVOK BECMG 2608/2610 18015G25KT PROB40 TEMPO 2614/2623 -SHRA SCT060CB PROB30 TEMPO 2614/2617 VRB15G30KT 4000 TSRA BKN050CB

Decode

Destination Runways

ID Width Length Bearing (true) Bearing (mag) Surface Threshold Offset Overrun Length
03 148 ft / 45 m 8,202 ft / 2,500 m 33.16° 32.68° Asphalt 0 ft / 0 m 0 ft / 0 m
21 148 ft / 45 m 8,202 ft / 2,500 m 213.18° 212.70° Asphalt 196 ft / 60 m 0 ft / 0 m

Approach Navaids

Runway Type Ident Frequency Range Bearing (true) Bearing (mag) Slope Elevation
03 Localiser LG 109.29 MHz 18 nm / 33 km 33.10° 32.62° - 1,299 ft / 396 m (AMSL)
03 Glidescope LG 109.29 MHz 10 nm / 19 km 33.17° 32.69° 3.00° 1,299 ft / 396 m (AMSL)
21 Localiser LG 110.10 MHz 18 nm / 33 km 213.16° 212.68° - 1,271 ft / 387 m (AMSL)
21 Glidescope LG 110.10 MHz 10 nm / 19 km 213.17° 212.69° 3.00° 1,271 ft / 387 m (AMSL)
21 DME LG 110.10 MHz 18 nm / 33 km - - - 1,340 ft / 408 m (AMSL)

Popular Alternatives